Latest Weather Observations for Argyle

IDW60801

Issued at 7:33 am WST Wednesday 18 September 2019 (issued every 10 minutes, with the page automatically refreshed every 10 minutes)

About weather observations | Map of weather stations | Latest weather observations for WA | Other Formats
Station Details ID: 002064 Name: ARGYLE AERODROME Lat: -16.64 Lon: 128.45 Height: 164.0 m
Data from the previous 72 hours. | See also: Recent months at Argyle
Date/Time
WST
Temp
°C
App
Temp
°C
Dew
Point
°C
Rel
Hum
%
Delta-T
°C
Wind Press
QNH
hPa
Press
MSL
hPa
Rain since
9am
mm
Dir  Spd
km/h
Gust
km/h
Spd
kts
Gust
kts
18/07:30am 28.0 25.7 7.3 27 11.1 ESE 9 13 5 7 1018.9 1017.8 0.0
18/07:00am 26.5 23.6 8.0 31 10.0 ENE 13 20 7 11 1018.8 1017.7 0.0
18/06:30am 24.4 22.8 8.0 35 8.8 SSE 6 9 3 5 1017.7 1016.6 0.0
18/06:00am 22.3 20.3 6.9 37 8.0 WSW 7 9 4 5 1017.3 1016.2 0.0
18/05:30am 22.5 20.7 7.9 39 7.7 S 7 9 4 5 1017.0 1015.9 0.0
18/05:00am 22.0 20.7 7.8 40 7.4 SE 4 7 2 4 1016.8 1015.7 0.0
18/04:30am 22.4 20.6 7.0 37 8.0 SE 6 7 3 4 1016.3 1015.2 0.0
18/04:00am 24.3 22.3 7.0 33 9.1 SSE 7 9 4 5 1016.1 1015.0 0.0
18/03:30am 24.8 22.5 7.4 33 9.2 S 9 13 5 7 1016.1 1015.0 0.0
18/03:00am 24.3 22.0 7.4 34 8.9 W 9 11 5 6 1015.8 1014.7 0.0
18/02:30am 23.5 21.1 7.2 35 8.5 WSW 9 9 5 5 1015.8 1014.7 0.0
18/02:00am 23.6 23.0 7.3 35 8.6 CALM 0 0 0 0 1015.9 1014.8 0.0
18/01:30am 23.8 22.1 7.4 35 8.6 ESE 6 7 3 4 1016.1 1015.0 0.0
18/01:00am 23.6 21.2 6.8 34 8.7 ENE 9 11 5 6 1016.3 1015.2 0.0
18/12:30am 26.0 25.3 7.1 30 10.0 CALM 0 0 0 0 1016.3 1015.2 0.0
18/12:00am 24.8 24.0 6.5 31 9.5 CALM 0 2 0 1 1016.3 1015.2 0.0
 
Date/Time
WST
Temp
°C
App
Temp
°C
Dew
Point
°C
Rel
Hum
%
Delta-T
°C
Wind Press
QNH
hPa
Press
MSL
hPa
Rain since
9am
mm
Dir  Spd
km/h
Gust
km/h
Spd
kts
Gust
kts
17/11:30pm 26.3 24.6 7.4 30 10.1 NW 6 7 3 4 1016.4 1015.3 0.0
17/11:00pm 26.6 24.7 7.6 30 10.2 WNW 7 7 4 4 1016.4 1015.3 0.0
17/10:30pm 26.0 24.1 7.6 31 9.9 W 7 9 4 5 1016.5 1015.4 0.0
17/10:00pm 26.6 24.6 7.1 29 10.4 W 7 9 4 5 1016.5 1015.4 0.0
17/09:30pm 27.5 27.0 7.9 29 10.6 CALM 0 0 0 0 1016.6 1015.5 0.0
17/09:00pm 28.1 26.4 7.4 27 11.2 NNW 6 7 3 4 1016.6 1015.5 0.0
17/08:30pm 29.7 27.1 7.6 25 12.1 NNE 11 13 6 7 1016.3 1015.2 0.0
17/08:00pm 30.4 27.8 7.6 24 12.5 NNE 11 15 6 8 1016.1 1015.0 0.0
17/07:30pm 31.1 28.1 7.5 23 13.0 NNE 13 15 7 8 1015.8 1014.7 0.0
17/07:00pm 30.8 27.8 7.9 24 12.6 NNE 13 15 7 8 1015.5 1014.4 0.0
17/06:30pm 30.7 27.7 7.8 24 12.6 NNE 13 15 7 8 1015.2 1014.1 0.0
17/06:00pm 30.9 29.1 8.0 24 12.7 NNE 7 9 4 5 1014.9 1013.8 0.0
17/05:30pm 31.9 29.9 8.8 24 13.0 NNE 9 13 5 7 1014.5 1013.4 0.0
17/05:00pm 33.0 31.1 9.1 23 13.6 NNE 9 15 5 8 1014.2 1013.1 0.0
17/04:30pm 33.7 31.4 9.0 22 14.1 NNW 11 19 6 10 1013.9 1012.8 0.0
17/04:00pm 33.8 31.9 9.1 22 14.1 NE 9 17 5 9 1013.8 1012.7 0.0
17/03:30pm 34.2 31.6 9.4 22 14.3 NE 13 22 7 12 1013.8 1012.7 0.0
17/03:00pm 34.0 31.8 9.3 22 14.2 NE 11 20 6 11 1013.8 1012.7 0.0
17/02:30pm 35.1 32.9 9.5 21 14.8 NNE 11 20 6 11 1013.9 1012.8 0.0
17/02:00pm 35.0 31.3 7.9 19 15.3 E 17 33 9 18 1014.2 1013.1 0.0
17/01:30pm 34.4 30.0 6.7 18 15.3 E 19 30 10 16 1014.6 1013.5 0.0
17/01:00pm 35.0 30.0 -1.1 10 17.6 NE 15 32 8 17 1014.9 1013.8 0.0
17/12:30pm 35.0 28.5 0.2 11 17.4 ENE 24 37 13 20 1015.1 1014.0 0.0
17/12:00pm 35.6 30.3 -0.7 10 17.9 NE 17 30 9 16 1015.6 1014.5 0.0
17/11:30am 33.8 29.2 3.6 15 15.8 NNE 17 32 9 17 1016.0 1014.9 0.0
17/11:00am 33.5 30.5 7.5 20 14.4 NE 13 22 7 12 1016.5 1015.4 0.0
17/10:30am 32.1 29.1 7.7 22 13.5 NNE 13 24 7 13 1017.0 1015.9 0.0
17/10:00am 32.8 29.9 8.3 22 13.7 NE 13 20 7 11 1017.5 1016.4 0.0
17/09:30am 31.5 28.1 5.8 20 13.8 NE 13 20 7 11 1017.8 1016.7 0.0
17/09:00am 31.0 28.1 4.7 19 13.8 NNE 9 15 5 8 1018.1 1017.1 0.0
17/08:30am 30.1 27.2 4.7 20 13.3 ENE 9 17 5 9 1018.1 1017.1 0.0
17/08:00am 29.1 26.7 5.2 22 12.5 E 7 13 4 7 1018.1 1017.1 0.0
17/07:30am 27.4 26.0 7.3 28 10.8 N 4 7 2 4 1017.8 1016.7 0.0
17/07:00am 25.8 23.9 7.4 31 9.8 W 7 9 4 5 1017.3 1016.2 0.0
17/06:30am 23.6 21.0 7.7 36 8.4 W 11 13 6 7 1017.0 1015.9 0.0
17/06:00am 21.4 18.0 7.6 41 7.2 W 15 19 8 10 1016.6 1015.5 0.0
17/05:30am 20.0 18.4 8.0 46 6.3 ESE 6 13 3 7 1016.5 1015.4 0.0
17/05:00am 20.1 17.0 7.1 43 6.7 ENE 13 20 7 11 1016.0 1014.9 0.0
17/04:30am 19.9 18.5 7.3 44 6.5 SE 4 9 2 5 1015.2 1014.1 0.0
17/04:00am 20.0 18.0 6.4 41 6.9 ESE 6 11 3 6 1014.9 1013.8 0.0
17/03:30am 22.1 20.3 7.1 38 7.8 WNW 6 9 3 5 1014.6 1013.5 0.0
17/03:00am 21.7 20.4 7.5 40 7.4 WSW 4 9 2 5 1014.4 1013.3 0.0
17/02:30am 22.3 20.6 7.7 39 7.7 SW 6 7 3 4 1014.4 1013.3 0.0
17/02:00am 22.5 20.2 7.5 38 7.9 SW 9 11 5 6 1014.4 1013.3 0.0
17/01:30am 23.6 21.8 8.1 37 8.3 SSW 7 9 4 5 1014.6 1013.5 0.0
17/01:00am 23.5 21.7 8.0 37 8.2 WSW 7 9 4 5 1014.7 1013.6 0.0
17/12:30am 22.8 20.7 8.1 39 7.8 W 9 11 5 6 1014.9 1013.8 0.0
17/12:00am 23.0 22.0 7.5 37 8.1 ESE 2 7 1 4 1014.9 1013.8 0.0
 
Date/Time
WST
Temp
°C
App
Temp
°C
Dew
Point
°C
Rel
Hum
%
Delta-T
°C
Wind Press
QNH
hPa
Press
MSL
hPa
Rain since
9am
mm
Dir  Spd
km/h
Gust
km/h
Spd
kts
Gust
kts
16/11:30pm 24.2 22.5 8.2 36 8.6 E 7 11 4 6 1015.2 1014.1 0.0
16/11:00pm 24.9 23.2 8.4 35 8.9 SE 7 13 4 7 1015.2 1014.1 0.0
16/10:30pm 25.0 23.9 6.7 31 9.6 W 2 15 1 8 1015.2 1014.1 0.0
16/10:00pm 27.0 25.3 8.4 31 10.1 WNW 7 9 4 5 1015.2 1014.1 0.0
16/09:30pm 26.7 24.6 8.2 31 10.1 WSW 9 11 5 6 1015.2 1014.1 0.0
16/09:00pm 27.7 26.1 8.1 29 10.7 W 6 9 3 5 1015.5 1014.4 0.0
16/08:30pm 27.9 26.2 8.2 29 10.8 WSW 7 9 4 5 1015.5 1014.4 0.0
16/08:00pm 29.6 28.1 9.2 28 11.4 NNE 7 9 4 5 1015.3 1014.2 0.0
16/07:30pm 29.0 27.0 8.7 28 11.3 NE 9 11 5 6 1015.1 1014.0 0.0
16/07:00pm 29.7 27.7 8.7 27 11.7 NNE 9 11 5 6 1014.8 1013.7 0.0
16/06:30pm 30.1 27.7 8.5 26 12.0 NNE 11 13 6 7 1014.5 1013.4 0.0
16/06:00pm 30.5 28.5 8.8 26 12.1 NNE 9 13 5 7 1014.1 1013.0 0.0
16/05:30pm 31.2 29.2 8.8 25 12.6 NNE 9 11 5 6 1013.7 1012.6 0.0
16/05:00pm 32.3 30.4 9.2 24 13.1 NE 9 13 5 7 1013.5 1012.4 0.0
16/04:30pm 32.9 30.6 9.0 23 13.6 NNE 11 15 6 8 1013.3 1012.2 0.0
16/04:00pm 33.2 31.4 9.3 23 13.7 NNE 9 13 5 7 1013.2 1012.1 0.0
16/03:30pm 33.5 31.2 8.9 22 14.0 ESE 11 17 6 9 1013.2 1012.1 0.0
16/03:00pm 34.1 30.6 8.7 21 14.4 E 17 26 9 14 1013.2 1012.1 0.0
16/02:30pm 33.9 30.5 7.8 20 14.6 NNW 15 20 8 11 1013.3 1012.2 0.0
16/02:00pm 33.5 30.6 8.2 21 14.2 ESE 13 24 7 13 1013.7 1012.6 0.0
16/01:30pm 35.0 31.3 6.3 17 15.8 E 15 26 8 14 1014.1 1013.0 0.0
16/01:00pm 34.6 29.6 1.1 12 16.9 NE 17 37 9 20 1014.4 1013.3 0.0
16/12:30pm 34.8 29.0 0.0 11 17.3 E 20 30 11 16 1014.9 1013.8 0.0
16/12:00pm 32.7 28.6 6.1 19 14.4 NNE 17 24 9 13 1015.3 1014.2 0.0
16/11:30am 32.9 30.6 9.0 23 13.6 NE 11 24 6 13 1015.8 1014.7 0.0
16/11:00am 32.7 29.9 10.1 25 13.0 ENE 15 22 8 12 1016.4 1015.3 0.0
16/10:30am 32.5 31.0 9.3 24 13.2 N 7 13 4 7 1016.9 1015.8 0.0
16/10:00am 30.9 27.7 5.3 20 13.5 E 11 19 6 10 1017.4 1016.3 0.0
16/09:30am 30.3 26.5 1.7 16 14.2 N 11 17 6 9 1017.7 1016.6 0.0
16/09:00am 29.5 25.6 -1.8 13 14.5 N 9 15 5 8 1018.2 1017.2 0.0
16/08:30am 28.7 23.9 -2.4 13 14.2 NE 13 19 7 10 1018.5 1017.4 0.0
16/08:00am 28.4 24.4 -2.6 13 14.1 E 9 15 5 8 1018.4 1017.3 0.0
16/07:30am 27.2 23.2 -2.6 14 13.4 SE 9 15 5 8 1018.1 1017.1 0.0
16/07:00am 25.8 21.7 -2.8 15 12.6 SE 9 11 5 6 1017.7 1016.6 0.0
16/06:51am 26.0 22.5 -1.7 16 12.5 ESE 7 9 4 5 1017.7 - 0.0
16/06:30am 24.4 21.1 -1.4 18 11.6 ESE 6 9 3 5 1017.4 1016.3 0.0
16/06:00am 21.0 19.0 -0.3 24 9.5 CALM 0 0 0 0 1016.9 1015.8 0.0
16/05:30am 21.0 17.4 -2.1 21 10.0 NE 7 11 4 6 1016.4 1015.3 0.0
16/05:00am 22.3 18.3 -2.4 19 10.7 E 9 13 5 7 1016.2 1015.1 0.0
16/04:30am 24.4 20.9 -1.4 18 11.6 SSW 7 9 4 5 1015.5 1014.4 0.0
16/04:00am 25.0 21.5 -1.7 17 12.0 SW 7 9 4 5 1015.4 1014.3 0.0
16/03:30am 24.3 21.2 -0.1 20 11.2 W 6 7 3 4 1015.1 1014.0 0.0
16/03:00am 23.2 20.0 -0.3 21 10.7 W 6 7 3 4 1015.0 1013.9 0.0
16/02:30am 22.6 19.4 -0.2 22 10.3 NW 6 7 3 4 1015.0 1013.9 0.0
16/02:00am 22.7 19.7 0.5 23 10.2 WNW 6 7 3 4 1015.1 1014.0 0.0
16/01:30am 22.6 19.7 1.6 25 9.9 WSW 6 7 3 4 1015.2 1014.1 0.0
16/01:00am 22.0 18.9 1.1 25 9.7 WSW 7 9 4 5 1015.3 1014.2 0.0
16/12:30am 23.6 21.8 1.3 23 10.5 CALM 0 0 0 0 1015.3 1014.2 0.0
16/12:00am 24.9 21.7 -0.3 19 11.6 SSE 6 7 3 4 1015.3 1014.2 0.0
 
Date/Time
WST
Temp
°C
App
Temp
°C
Dew
Point
°C
Rel
Hum
%
Delta-T
°C
Wind Press
QNH
hPa
Press
MSL
hPa
Rain since
9am
mm
Dir  Spd
km/h
Gust
km/h
Spd
kts
Gust
kts
15/11:30pm 25.3 23.3 0.0 19 11.8 CALM 0 0 0 0 1015.5 1014.4 0.0
15/11:00pm 23.5 21.5 -0.1 21 10.8 CALM 0 0 0 0 1015.6 1014.5 0.0
15/10:30pm 25.7 22.6 0.4 19 11.9 SSE 6 7 3 4 1015.8 1014.7 0.0
15/10:00pm 25.4 21.6 1.5 21 11.4 SSE 11 13 6 7 1015.7 1014.6 0.0
15/09:30pm 25.1 22.0 1.3 21 11.3 WSW 7 11 4 6 1015.7 1014.6 0.0
15/09:00pm 26.1 22.6 1.4 20 11.8 WSW 9 9 5 5 1015.9 1014.8 0.0
15/08:30pm 27.9 25.0 1.4 18 12.9 SSW 6 7 3 4 1015.9 1014.8 0.0
15/08:00pm 27.3 25.3 0.1 17 12.8 CALM 0 0 0 0 1015.8 1014.7 0.0
15/07:30pm 28.2 25.2 0.9 17 13.2 ESE 6 9 3 5 1015.5 1014.4 0.0
15/07:00pm 28.4 25.3 0.2 16 13.4 NE 6 7 3 4 1015.4 1014.3 0.0
15/06:30pm 29.5 26.2 0.2 15 14.1 NE 7 9 4 5 1015.1 1014.0 0.0
15/06:00pm 30.0 26.2 -0.4 14 14.5 NNE 9 11 5 6 1014.9 1013.8 0.0
15/05:30pm 31.2 27.4 -0.5 13 15.2 NE 9 11 5 6 1014.6 1013.5 0.0
15/05:00pm 32.8 29.2 0.8 13 15.9 NE 9 15 5 8 1014.4 1013.3 0.0
15/04:30pm 33.9 29.1 0.5 12 16.6 E 15 20 8 11 1014.1 1013.0 0.0
15/04:00pm 34.1 29.8 0.7 12 16.7 NE 13 22 7 12 1013.9 1012.8 0.0
15/03:30pm 34.5 28.9 -0.2 11 17.1 E 19 50 10 27 1013.8 1012.7 0.0
15/03:25pm 35.0 29.8 0.2 11 17.4 SE 17 50 9 27 1013.6 1012.5 0.0
15/03:00pm 34.7 30.2 -0.1 11 17.2 ENE 13 28 7 15 1013.9 1012.8 0.0
15/02:30pm 34.7 29.5 -0.1 11 17.2 E 17 30 9 16 1014.0 1012.9 0.0
15/02:00pm 33.9 28.8 0.5 12 16.6 NE 17 30 9 16 1014.2 1013.1 0.0
15/01:30pm 34.1 29.2 1.8 13 16.4 NE 17 43 9 23 1014.5 1013.4 0.0
15/01:00pm 33.8 28.6 2.6 14 16.1 NNE 19 33 10 18 1014.9 1013.8 0.0
15/12:30pm 33.7 30.6 3.5 15 15.8 NE 9 17 5 9 1015.4 1014.3 0.0
15/12:00pm 32.9 28.3 3.8 16 15.2 NE 17 30 9 16 1016.0 1014.9 0.0
15/11:30am 32.3 27.7 5.7 19 14.3 NNE 19 30 10 16 1016.5 1015.4 0.0
15/11:00am 32.5 27.8 5.1 18 14.6 NE 19 30 10 16 1017.0 1015.9 0.0
15/10:30am 32.0 27.8 5.5 19 14.2 NE 17 30 9 16 1017.7 1016.6 0.0
15/10:00am 31.5 26.2 5.1 19 14.0 ENE 22 33 12 18 1018.0 1017.0 0.0
15/09:30am 30.1 25.6 4.0 19 13.5 ENE 17 28 9 15 1018.6 1017.5 0.0
15/09:00am 29.7 24.8 2.1 17 13.7 ENE 17 30 9 16 1018.9 1017.8 0.0
15/08:30am 28.9 24.3 1.4 17 13.5 ENE 15 26 8 14 1019.2 1018.1 0.0
15/08:00am 28.6 24.1 -0.5 15 13.7 ENE 13 20 7 11 1019.2 1018.1 0.0

Other formats

Comma delimited format used in spreadsheet applications
http://www.bom.gov.au/fwo/IDW60801/IDW60801.94217.axf

JavaScript Object Notation format (JSON) in row-major order
http://www.bom.gov.au/fwo/IDW60801/IDW60801.94217.json

Data quality

Most of these data are generated automatically and are frequently updated. Quality checks on data are not normally performed. It is possible for incorrect values to appear. Refer to information at About Latest Weather Observations and please check the disclaimer before using these data.